Time;durP1;ratioP1;P1;durP2;ratioP2;P2;SDS_P1;SDS_P2;PMS_P1;PMS_P2;Temp;Humidity;BMP_temperature;BMP_pressure;BME280_temperature;BME280_humidity;BME280_pressure;Samples;Min_cycle;Max_cycle;Signal;HPM_P1;HPM_P2
2023/08/08 00:01:17;;;;;;;3.33;1.50;;;;;;;12.13;79.83;97869.31;6217978;28;20330;-57
2023/08/08 00:04:19;;;;;;;2.57;1.20;;;;;;;12.03;80.04;97858.50;6234577;28;20258;-57
2023/08/08 00:07:22;;;;;;;2.23;1.40;;;;;;;11.92;80.19;97837.25;6218781;28;20322;-58
2023/08/08 00:10:24;;;;;;;2.53;1.40;;;;;;;12.12;77.85;97850.91;6218590;28;20243;-55
2023/08/08 00:13:26;;;;;;;3.13;1.50;;;;;;;12.27;76.25;97861.75;6220263;28;20235;-56
2023/08/08 00:16:28;;;;;;;1.83;1.40;;;;;;;12.27;76.93;97848.41;6216060;28;20319;-57
2023/08/08 00:19:30;;;;;;;2.13;1.43;;;;;;;12.26;78.14;97860.13;6218312;28;20659;-54
2023/08/08 00:22:33;;;;;;;1.17;1.03;;;;;;;12.26;78.29;97862.00;6232755;28;20232;-59
2023/08/08 00:25:36;;;;;;;1.30;1.10;;;;;;;12.18;78.52;97863.25;6218225;28;20629;-58
2023/08/08 00:28:39;;;;;;;1.33;1.00;;;;;;;12.01;78.21;97854.47;6213166;28;20231;-58
2023/08/08 00:31:42;;;;;;;3.50;1.20;;;;;;;11.93;80.27;97854.91;6219482;28;20606;-57
2023/08/08 00:34:44;;;;;;;2.13;1.07;;;;;;;11.84;79.36;97867.84;6226547;28;20798;-54
2023/08/08 00:37:47;;;;;;;1.73;1.30;;;;;;;11.82;80.22;97864.59;6196763;28;20787;-57
2023/08/08 00:40:49;;;;;;;3.50;1.33;;;;;;;11.75;79.56;97874.63;6217956;28;20247;-58
2023/08/08 00:43:51;;;;;;;1.87;1.20;;;;;;;11.69;80.66;97865.72;6220273;28;20239;-57
2023/08/08 00:46:54;;;;;;;2.57;1.10;;;;;;;11.79;79.50;97867.75;6217564;28;20232;-57
2023/08/08 00:49:57;;;;;;;1.70;1.27;;;;;;;11.97;77.62;97870.19;6202076;28;20232;-56
2023/08/08 00:52:59;;;;;;;2.87;1.30;;;;;;;11.80;77.96;97834.66;6218094;28;20309;-58
2023/08/08 00:56:01;;;;;;;1.00;0.90;;;;;;;11.98;79.70;97863.78;6225321;28;20814;-58
2023/08/08 00:59:04;;;;;;;1.50;1.30;;;;;;;11.94;79.96;97872.53;6217646;28;20232;-56
2023/08/08 01:02:06;;;;;;;1.33;1.10;;;;;;;11.79;81.10;97849.88;6219172;28;20705;-57
2023/08/08 01:05:11;;;;;;;1.27;1.00;;;;;;;11.78;80.33;97860.81;6200879;28;20233;-57
2023/08/08 01:08:17;;;;;;;1.97;1.20;;;;;;;11.75;81.10;97861.28;6216257;28;20263;-57
2023/08/08 01:11:19;;;;;;;1.57;1.10;;;;;;;11.67;81.66;97867.00;6217470;28;20616;-51
2023/08/08 01:14:25;;;;;;;2.93;1.20;;;;;;;11.61;82.38;97864.28;6213065;28;20228;-56
2023/08/08 01:17:28;;;;;;;2.57;1.43;;;;;;;11.54;83.14;97860.97;6217133;28;20729;-55
2023/08/08 01:20:33;;;;;;;1.97;1.03;;;;;;;11.73;80.52;97872.22;6218809;28;20239;-57
2023/08/08 01:23:56;;;;;;;1.20;1.00;;;;;;;11.73;81.07;97868.72;6213314;28;20362;-58
2023/08/08 01:27:00;;;;;;;1.50;0.93;;;;;;;11.98;76.45;97860.31;6210627;28;20231;-58
2023/08/08 01:30:03;;;;;;;1.23;1.07;;;;;;;12.32;75.29;97869.84;6231926;28;20242;-58
2023/08/08 01:33:06;;;;;;;1.23;0.93;;;;;;;12.21;78.33;97880.63;6216141;28;20207;-57
2023/08/08 01:36:28;;;;;;;1.23;0.80;;;;;;;12.03;79.79;97879.88;6217622;28;20263;-56
2023/08/08 01:39:32;;;;;;;3.87;1.23;;;;;;;11.89;77.61;97881.28;6213248;28;20227;-57
2023/08/08 01:42:34;;;;;;;1.10;1.00;;;;;;;11.85;79.63;97874.81;6199411;28;20228;-57
2023/08/08 01:45:38;;;;;;;1.03;0.90;;;;;;;11.65;81.35;97858.47;6220235;28;20255;-55
2023/08/08 01:48:44;;;;;;;1.30;1.20;;;;;;;11.66;82.09;97889.41;6212849;28;20263;-57
2023/08/08 01:51:48;;;;;;;1.53;1.00;;;;;;;11.54;81.09;97873.50;6221672;28;20217;-55
2023/08/08 01:54:50;;;;;;;1.07;1.00;;;;;;;11.53;81.82;97882.56;6215858;28;20576;-57
2023/08/08 01:57:53;;;;;;;1.00;1.00;;;;;;;11.41;81.49;97866.63;6199770;28;20311;-53
2023/08/08 02:00:55;;;;;;;1.93;1.00;;;;;;;11.51;82.04;97896.13;6217778;28;20237;-58
2023/08/08 02:03:57;;;;;;;1.97;1.20;;;;;;;11.43;82.80;97893.88;6216419;28;20242;-58
2023/08/08 02:07:01;;;;;;;2.20;1.17;;;;;;;11.70;78.75;97898.56;6199365;28;20227;-57
2023/08/08 02:10:05;;;;;;;1.80;0.90;;;;;;;11.69;81.18;97889.75;6214908;28;20314;-58
2023/08/08 02:13:07;;;;;;;0.93;0.90;;;;;;;11.63;82.42;97899.53;6217632;28;20856;-54
2023/08/08 02:16:10;;;;;;;1.70;1.00;;;;;;;11.56;82.60;97901.53;6198399;28;20319;-58
2023/08/08 02:19:12;;;;;;;0.90;0.90;;;;;;;11.54;83.35;97901.00;6216694;28;20231;-53
2023/08/08 02:22:14;;;;;;;2.27;1.03;;;;;;;11.51;81.09;97911.34;6196138;28;20224;-58
2023/08/08 02:25:17;;;;;;;0.90;0.90;;;;;;;11.53;82.68;97909.25;6217093;28;20243;-57
2023/08/08 02:28:19;;;;;;;1.63;1.00;;;;;;;11.40;83.25;97893.56;6214432;28;20236;-58
2023/08/08 02:31:21;;;;;;;2.00;1.23;;;;;;;11.41;83.51;97901.31;6215895;28;20337;-58
2023/08/08 02:34:25;;;;;;;1.87;1.27;;;;;;;11.40;83.50;97905.03;6200483;28;20290;-57
2023/08/08 02:37:27;;;;;;;1.20;0.90;;;;;;;11.45;83.21;97906.97;6215425;28;20248;-54
2023/08/08 02:40:29;;;;;;;1.20;1.10;;;;;;;11.32;83.55;97903.56;6216683;28;20255;-56
2023/08/08 02:43:32;;;;;;;1.07;0.90;;;;;;;11.31;83.63;97919.81;6197631;28;20238;-57
2023/08/08 02:46:34;;;;;;;2.07;1.13;;;;;;;11.21;84.13;97920.44;6218559;28;20239;-57
2023/08/08 02:49:37;;;;;;;3.20;1.30;;;;;;;11.23;85.75;97906.84;6236483;28;20243;-54
2023/08/08 02:52:39;;;;;;;1.47;1.23;;;;;;;11.15;85.46;97912.59;6230873;28;20235;-58
2023/08/08 02:55:41;;;;;;;1.33;1.20;;;;;;;11.20;84.04;97907.34;6219448;28;20235;-55
2023/08/08 02:58:43;;;;;;;2.03;0.93;;;;;;;11.53;80.17;97910.06;6220275;28;20232;-58
2023/08/08 03:01:47;;;;;;;2.43;1.07;;;;;;;11.72;81.94;97915.94;6201695;28;20232;-54
2023/08/08 03:04:52;;;;;;;1.23;1.13;;;;;;;11.75;81.72;97918.13;6201910;28;20228;-56
2023/08/08 03:07:57;;;;;;;1.37;1.10;;;;;;;11.74;81.55;97900.50;6202161;28;20236;-57
2023/08/08 03:11:01;;;;;;;2.77;1.10;;;;;;;11.88;80.07;97922.38;6216337;28;20243;-58
2023/08/08 03:14:03;;;;;;;1.07;1.00;;;;;;;11.98;78.43;97930.53;6201712;28;20612;-57
2023/08/08 03:17:06;;;;;;;1.10;1.00;;;;;;;11.99;76.92;97901.97;6220084;28;20240;-54
2023/08/08 03:20:10;;;;;;;1.20;0.93;;;;;;;12.00;77.64;97899.03;6198155;28;20914;-54
2023/08/08 03:23:13;;;;;;;1.07;0.97;;;;;;;12.11;78.71;97924.03;6205669;28;20232;-54
2023/08/08 03:26:16;;;;;;;1.83;1.23;;;;;;;12.09;78.65;97915.47;6201726;28;20229;-55
2023/08/08 03:29:19;;;;;;;2.63;1.17;;;;;;;12.10;79.00;97922.41;6197251;28;20251;-58
2023/08/08 03:32:23;;;;;;;2.83;1.10;;;;;;;12.03;80.13;97914.59;6221348;28;20228;-57
2023/08/08 03:35:27;;;;;;;2.67;1.10;;;;;;;12.06;78.31;97930.09;6218905;28;20232;-56
2023/08/08 03:38:29;;;;;;;1.20;1.10;;;;;;;12.08;78.28;97924.53;6202312;28;20239;-56
2023/08/08 03:41:31;;;;;;;1.20;0.87;;;;;;;12.27;74.21;97917.06;6198891;28;20346;-59
2023/08/08 03:44:34;;;;;;;3.17;1.27;;;;;;;12.23;77.65;97907.91;6203481;28;20736;-56
2023/08/08 03:47:36;;;;;;;1.00;0.90;;;;;;;12.23;74.92;97889.22;6212522;28;20229;-53
2023/08/08 03:50:38;;;;;;;1.30;1.00;;;;;;;12.32;75.03;97909.91;6220447;28;20757;-59
2023/08/08 03:53:41;;;;;;;1.37;1.10;;;;;;;12.35;75.23;97911.28;6207044;28;20734;-59
2023/08/08 03:56:44;;;;;;;1.13;0.90;;;;;;;12.45;73.68;97927.44;6220162;28;20314;-59
2023/08/08 03:59:47;;;;;;;1.20;1.00;;;;;;;12.44;73.88;97914.31;6201597;28;20232;-58
2023/08/08 04:02:49;;;;;;;1.47;1.10;;;;;;;12.44;73.03;97917.00;6232213;28;20236;-57
2023/08/08 04:05:52;;;;;;;1.10;1.00;;;;;;;12.56;73.59;97928.38;6189230;28;20235;-58
2023/08/08 04:08:55;;;;;;;0.83;0.80;;;;;;;12.61;72.16;97926.59;6207962;28;20238;-56
2023/08/08 04:11:57;;;;;;;3.20;1.13;;;;;;;12.61;73.90;97936.44;6200972;28;20249;-56
2023/08/08 04:15:00;;;;;;;1.13;0.90;;;;;;;12.66;72.77;97947.22;6216908;28;20462;-60
2023/08/08 04:18:03;;;;;;;1.40;0.87;;;;;;;12.54;73.50;97925.16;6198724;28;20236;-57
2023/08/08 04:21:05;;;;;;;2.77;1.20;;;;;;;12.53;74.06;97924.34;6218426;28;20227;-59
2023/08/08 04:24:07;;;;;;;1.57;1.10;;;;;;;12.79;71.10;97924.63;6224195;28;20222;-59
2023/08/08 04:27:10;;;;;;;1.37;0.77;;;;;;;12.84;72.40;97938.88;6215797;28;20223;-58
2023/08/08 04:30:12;;;;;;;1.80;1.00;;;;;;;12.99;70.37;97937.44;6220526;28;20347;-55
2023/08/08 04:33:15;;;;;;;1.03;0.90;;;;;;;12.97;71.26;97948.38;6200764;28;20229;-54
2023/08/08 04:36:17;;;;;;;1.43;1.10;;;;;;;12.95;70.77;97926.41;6215614;28;20359;-54
2023/08/08 04:39:19;;;;;;;1.60;0.97;;;;;;;13.01;72.30;97951.38;6216069;28;20597;-56
2023/08/08 04:42:22;;;;;;;1.43;1.10;;;;;;;12.94;69.70;97924.00;6198837;28;20227;-58
2023/08/08 04:45:27;;;;;;;1.10;1.00;;;;;;;13.21;69.30;97951.59;6217960;28;20362;-58
2023/08/08 04:48:32;;;;;;;0.90;0.80;;;;;;;13.11;70.79;97957.66;6217182;28;20224;-56
2023/08/08 04:51:35;;;;;;;1.47;1.00;;;;;;;13.09;70.32;97950.91;6217868;28;20228;-57
2023/08/08 04:54:37;;;;;;;2.07;1.27;;;;;;;13.09;71.10;97946.38;6204926;28;20216;-59
2023/08/08 04:57:39;;;;;;;0.80;0.80;;;;;;;13.10;71.80;97955.19;6216836;28;20232;-56
2023/08/08 05:00:42;;;;;;;2.03;1.00;;;;;;;13.15;71.29;97960.59;6217118;28;20326;-58
2023/08/08 05:03:44;;;;;;;1.17;1.00;;;;;;;13.18;72.78;97955.56;6212933;28;20326;-57
2023/08/08 05:06:47;;;;;;;3.33;1.00;;;;;;;13.18;74.25;97957.44;6222038;28;20704;-57
2023/08/08 05:16:43;;;;;;;2.00;0.90;;;;;;;13.26;74.36;97957.03;6212483;28;20244;-58
2023/08/08 05:19:45;;;;;;;1.00;0.90;;;;;;;13.30;74.68;97960.81;6220929;28;20691;-59
2023/08/08 05:22:48;;;;;;;1.10;1.00;;;;;;;13.35;75.07;97960.06;6218580;28;20229;-58
2023/08/08 05:25:51;;;;;;;1.17;1.00;;;;;;;13.42;75.62;97966.00;6202020;28;20263;-58
2023/08/08 05:28:54;;;;;;;1.10;1.00;;;;;;;13.46;75.50;97963.66;6202929;28;20244;-58
2023/08/08 05:31:56;;;;;;;2.43;1.50;;;;;;;13.51;75.38;97966.38;6224171;28;20735;-59
2023/08/08 05:35:00;;;;;;;1.40;0.90;;;;;;;13.56;74.01;97958.38;6197200;28;20229;-59
2023/08/08 05:38:03;;;;;;;1.13;0.80;;;;;;;13.65;73.74;97956.88;6218860;28;20464;-59
2023/08/08 05:41:05;;;;;;;1.93;1.33;;;;;;;13.88;70.59;97955.69;6218359;28;20228;-58
2023/08/08 05:44:07;;;;;;;2.37;0.93;;;;;;;13.51;71.24;97891.44;6218993;28;20239;-56
2023/08/08 05:47:10;;;;;;;2.57;1.00;;;;;;;13.84;72.85;97959.94;6219240;28;20235;-57
2023/08/08 05:50:13;;;;;;;2.53;1.00;;;;;;;13.77;73.77;97948.66;6190424;28;20231;-59
2023/08/08 05:53:15;;;;;;;2.53;0.90;;;;;;;13.88;72.81;97947.66;6218836;28;20234;-59
2023/08/08 05:56:17;;;;;;;0.87;0.60;;;;;;;13.83;72.93;97948.44;6198388;28;20279;-58
2023/08/08 05:59:20;;;;;;;1.23;1.07;;;;;;;13.87;73.02;97928.09;6227949;28;20275;-55
2023/08/08 06:02:22;;;;;;;1.07;0.90;;;;;;;14.02;73.87;97943.47;6218854;28;20230;-59
2023/08/08 06:05:24;;;;;;;1.87;1.17;;;;;;;14.04;76.09;97941.38;6212205;28;20366;-57
2023/08/08 06:08:26;;;;;;;1.67;1.10;;;;;;;14.06;76.46;97947.25;6215638;28;20250;-57
2023/08/08 06:11:29;;;;;;;1.37;1.20;;;;;;;14.07;76.42;97954.22;6216433;28;20236;-59
2023/08/08 06:14:32;;;;;;;1.47;1.10;;;;;;;14.12;71.98;97970.34;6220941;28;20374;-56
2023/08/08 06:17:34;;;;;;;1.63;0.90;;;;;;;14.22;72.89;97955.41;6198673;28;20240;-59
2023/08/08 06:20:37;;;;;;;1.93;0.80;;;;;;;14.43;68.44;97962.50;6212766;28;20232;-57
2023/08/08 06:23:39;;;;;;;1.07;0.80;;;;;;;14.42;69.91;97952.84;6217358;28;20241;-58
2023/08/08 06:26:42;;;;;;;0.90;0.80;;;;;;;14.39;71.69;97956.06;6196051;28;20224;-58
2023/08/08 06:29:45;;;;;;;1.77;0.90;;;;;;;14.39;71.74;97961.41;6221187;28;20234;-59
2023/08/08 06:32:47;;;;;;;1.97;1.40;;;;;;;14.41;72.67;97961.94;6216785;28;20234;-59
2023/08/08 06:35:50;;;;;;;2.73;1.67;;;;;;;14.31;72.27;97943.13;6203298;28;20228;-59
2023/08/08 06:38:52;;;;;;;3.83;1.10;;;;;;;14.42;70.20;97958.19;6216299;28;20240;-59
2023/08/08 06:41:54;;;;;;;1.10;0.80;;;;;;;14.58;68.07;97965.31;6217214;28;20232;-57
2023/08/08 06:45:07;;;;;;;0.93;0.83;;;;;;;14.65;69.55;97970.44;6213009;28;20311;-58
2023/08/08 06:48:10;;;;;;;2.13;1.00;;;;;;;14.69;71.43;97968.84;6199729;28;20358;-58
2023/08/08 06:51:13;;;;;;;2.03;1.10;;;;;;;14.77;67.34;97946.88;6195295;28;20219;-59
2023/08/08 06:54:15;;;;;;;1.80;0.77;;;;;;;15.08;66.70;97971.16;6218645;28;20302;-58
2023/08/08 06:57:17;;;;;;;1.90;1.03;;;;;;;15.23;67.33;97982.72;6214327;28;20236;-58
2023/08/08 07:00:20;;;;;;;1.03;0.90;;;;;;;15.43;63.20;97978.47;6211566;28;20299;-58
2023/08/08 07:03:22;;;;;;;1.87;1.00;;;;;;;15.30;65.31;97973.63;6198443;28;20310;-58
2023/08/08 07:06:25;;;;;;;1.37;1.00;;;;;;;15.34;66.11;97972.03;6215572;28;20235;-59
2023/08/08 07:09:27;;;;;;;1.10;1.00;;;;;;;15.41;66.79;97967.19;6215558;28;20235;-58
2023/08/08 07:12:29;;;;;;;0.90;0.80;;;;;;;15.56;67.82;97972.56;6199813;28;20230;-59
2023/08/08 07:15:31;;;;;;;1.00;0.90;;;;;;;15.74;65.83;97965.91;6215249;28;21006;-58
2023/08/08 07:18:34;;;;;;;3.23;1.10;;;;;;;15.87;68.07;97965.41;6215612;28;20830;-59
2023/08/08 07:21:36;;;;;;;1.63;0.97;;;;;;;15.94;67.89;97973.19;6215939;28;20239;-59
2023/08/08 07:24:38;;;;;;;0.97;0.87;;;;;;;15.89;69.06;97949.81;6215619;28;20569;-59
2023/08/08 07:27:41;;;;;;;0.70;0.70;;;;;;;16.09;63.13;97961.63;6215483;28;20286;-57
2023/08/08 07:30:43;;;;;;;1.57;1.10;;;;;;;16.16;66.35;97960.28;6216193;28;20313;-59
2023/08/08 07:33:46;;;;;;;4.43;1.10;;;;;;;16.16;62.55;97948.72;6220061;28;20239;-59
2023/08/08 07:36:48;;;;;;;1.00;0.90;;;;;;;16.47;62.77;97969.09;6221698;28;20316;-56
2023/08/08 07:39:51;;;;;;;1.00;0.90;;;;;;;16.74;59.62;97979.53;6216717;28;20236;-58
2023/08/08 07:42:54;;;;;;;0.77;0.77;;;;;;;16.71;59.49;97973.88;6221510;28;20239;-59
2023/08/08 07:45:56;;;;;;;1.10;0.80;;;;;;;16.75;58.92;97974.97;6221044;28;20514;-58
2023/08/08 07:49:03;;;;;;;1.10;0.90;;;;;;;16.61;59.62;97955.88;6221037;28;20606;-59
2023/08/08 07:52:06;;;;;;;1.57;1.00;;;;;;;16.59;62.71;97976.03;6219189;28;20270;-57
2023/08/08 07:55:09;;;;;;;2.27;0.87;;;;;;;16.48;62.44;97981.44;6223905;28;20228;-58
2023/08/08 07:58:11;;;;;;;0.70;0.70;;;;;;;16.52;61.05;97973.66;6216889;28;20270;-58
2023/08/08 08:01:13;;;;;;;1.17;0.80;;;;;;;16.59;57.75;97963.41;6218198;28;20243;-55
2023/08/08 08:04:16;;;;;;;1.47;1.10;;;;;;;16.75;59.69;97962.31;6219154;28;20244;-58
2023/08/08 08:07:18;;;;;;;0.97;0.73;;;;;;;16.99;59.62;97945.50;6216064;28;20231;-58
2023/08/08 08:10:20;;;;;;;0.70;0.70;;;;;;;17.00;59.35;97953.34;6220158;28;20639;-57
2023/08/08 08:13:23;;;;;;;0.87;0.80;;;;;;;17.16;59.04;97951.38;6203145;28;20232;-56
2023/08/08 08:16:25;;;;;;;2.23;0.90;;;;;;;17.17;60.45;97952.16;6220153;28;20469;-58
2023/08/08 08:19:27;;;;;;;2.10;0.80;;;;;;;17.19;58.56;97955.38;6221221;28;20227;-58
2023/08/08 08:22:29;;;;;;;3.17;2.77;;;;;;;17.20;58.81;97957.81;6222090;28;20322;-59
2023/08/08 08:25:32;;;;;;;1.67;1.20;;;;;;;17.27;60.00;97955.59;6203591;28;20232;-58
2023/08/08 08:28:34;;;;;;;0.83;0.80;;;;;;;17.27;56.82;97962.88;6221406;28;20232;-58
2023/08/08 08:31:38;;;;;;;2.53;0.90;;;;;;;17.09;57.43;97969.69;6220614;28;20243;-56
2023/08/08 08:34:40;;;;;;;0.90;0.80;;;;;;;17.07;56.17;97965.69;6219980;28;20602;-56
2023/08/08 08:37:43;;;;;;;1.13;1.03;;;;;;;17.00;56.99;97960.59;6219523;28;20621;-55
2023/08/08 08:40:48;;;;;;;4.47;3.93;;;;;;;16.97;58.59;97959.25;6221275;28;20278;-56
2023/08/08 08:43:50;;;;;;;1.03;0.90;;;;;;;16.95;57.39;97972.19;6220073;28;20289;-57
2023/08/08 08:47:02;;;;;;;2.67;1.70;;;;;;;16.99;59.17;97977.81;6220112;28;20260;-58
2023/08/08 08:50:05;;;;;;;1.10;1.00;;;;;;;16.98;59.70;97971.63;6216223;28;20233;-57
2023/08/08 08:53:10;;;;;;;1.40;0.93;;;;;;;16.97;57.65;97974.59;6220557;28;20243;-56
2023/08/08 08:56:16;;;;;;;1.03;0.83;;;;;;;16.86;58.45;97956.91;6200403;28;20312;-55
2023/08/08 08:59:19;;;;;;;1.63;1.10;;;;;;;16.95;62.35;97968.72;6219842;28;20239;-55
2023/08/08 09:02:23;;;;;;;2.97;0.87;;;;;;;16.90;61.84;97977.59;6220689;28;20228;-57
2023/08/08 09:05:26;;;;;;;1.03;0.93;;;;;;;16.89;56.86;97954.44;6220066;28;20228;-56
2023/08/08 09:08:29;;;;;;;1.47;0.97;;;;;;;17.03;58.37;97951.97;6218606;28;20236;-55
2023/08/08 09:11:31;;;;;;;1.37;1.07;;;;;;;17.30;59.29;97950.75;6204177;28;20228;-57
2023/08/08 09:14:34;;;;;;;2.40;2.20;;;;;;;17.36;60.62;97952.34;6220324;28;20240;-56
2023/08/08 09:17:44;;;;;;;2.47;2.00;;;;;;;17.50;57.86;97956.00;6217589;28;20236;-58
2023/08/08 09:20:50;;;;;;;1.63;1.13;;;;;;;17.66;55.98;97951.31;6218423;28;20331;-54
2023/08/08 09:23:53;;;;;;;2.00;1.07;;;;;;;17.79;54.26;97954.22;6218364;28;20239;-54
2023/08/08 09:26:55;;;;;;;3.03;1.30;;;;;;;17.73;56.15;97931.09;6201687;28;20302;-57
2023/08/08 09:29:57;;;;;;;1.27;1.17;;;;;;;17.62;58.01;97907.97;6218777;28;20716;-58
2023/08/08 09:33:01;;;;;;;1.90;1.70;;;;;;;17.93;58.38;97929.28;6218141;28;20227;-57
2023/08/08 09:36:04;;;;;;;4.00;2.57;;;;;;;18.05;58.87;97927.03;6219091;28;20235;-57
2023/08/08 09:39:07;;;;;;;1.23;0.93;;;;;;;18.16;58.50;97927.72;6199000;28;20248;-55
2023/08/08 09:42:11;;;;;;;3.50;3.03;;;;;;;17.93;58.51;97887.00;6217734;28;20216;-55
2023/08/08 09:45:13;;;;;;;1.47;1.33;;;;;;;18.23;57.73;97930.91;6220266;28;20224;-52
2023/08/08 09:48:18;;;;;;;1.20;1.10;;;;;;;18.30;57.54;97926.78;6215057;28;20232;-56
2023/08/08 09:51:21;;;;;;;1.33;0.90;;;;;;;18.40;53.96;97922.38;6221576;28;20219;-56
2023/08/08 09:54:24;;;;;;;1.20;0.80;;;;;;;18.49;50.04;97917.97;6218900;28;20648;-53
2023/08/08 09:57:27;;;;;;;0.83;0.80;;;;;;;18.59;50.41;97915.13;6217156;28;20239;-55
2023/08/08 10:00:30;;;;;;;0.70;0.70;;;;;;;18.78;46.36;97918.72;6220781;28;20736;-59
2023/08/08 10:03:34;;;;;;;0.80;0.80;;;;;;;18.63;47.93;97891.88;6219440;28;20733;-59
2023/08/08 10:06:36;;;;;;;4.00;3.67;;;;;;;18.83;52.44;97908.97;6196344;28;20233;-56
2023/08/08 10:09:39;;;;;;;1.37;0.90;;;;;;;18.93;49.09;97909.63;6217689;28;20225;-56
2023/08/08 10:12:42;;;;;;;1.90;1.20;;;;;;;19.06;47.81;97910.78;6216815;28;20216;-53
2023/08/08 10:15:44;;;;;;;0.70;0.70;;;;;;;19.10;47.93;97890.22;6216607;28;20233;-51
2023/08/08 10:18:56;;;;;;;1.13;0.87;;;;;;;19.28;45.76;97921.03;6217299;28;20232;-57
2023/08/08 10:22:04;;;;;;;1.63;1.20;;;;;;;19.01;46.42;97905.44;6200099;28;20240;-56
2023/08/08 10:25:08;;;;;;;1.03;0.93;;;;;;;19.04;47.35;97913.78;6211685;28;20243;-56
2023/08/08 10:28:13;;;;;;;1.37;0.70;;;;;;;19.18;46.37;97911.16;6216837;28;20606;-57
2023/08/08 10:31:34;;;;;;;2.17;1.70;;;;;;;19.03;49.02;97901.38;6213899;28;20318;-56
2023/08/08 10:34:41;;;;;;;2.53;2.33;;;;;;;19.02;48.94;97899.78;6216479;28;20231;-56
2023/08/08 10:37:54;;;;;;;2.47;1.00;;;;;;;19.17;51.23;97898.75;6212398;28;20331;-54
2023/08/08 10:40:58;;;;;;;1.00;0.90;;;;;;;19.26;49.65;97897.00;6218219;28;20246;-58
2023/08/08 10:44:00;;;;;;;0.93;0.73;;;;;;;19.34;46.36;97887.44;6216848;28;20263;-56
2023/08/08 10:47:04;;;;;;;1.07;0.97;;;;;;;19.22;49.70;97855.47;6221866;28;20239;-57
2023/08/08 10:50:09;;;;;;;0.77;0.60;;;;;;;19.57;45.59;97874.91;6225542;28;20307;-56
2023/08/08 10:53:14;;;;;;;1.60;0.90;;;;;;;19.81;46.59;97880.22;6216685;28;20323;-52
2023/08/08 10:56:18;;;;;;;6.50;3.80;;;;;;;19.67;47.16;97877.47;6217469;28;21026;-57
2023/08/08 10:59:37;;;;;;;1.73;1.10;;;;;;;19.70;47.05;97879.56;6213443;28;20257;-57
2023/08/08 11:02:40;;;;;;;1.20;1.00;;;;;;;19.80;44.11;97873.19;6220583;28;20243;-58
2023/08/08 11:05:48;;;;;;;0.83;0.80;;;;;;;19.77;43.88;97880.00;6217360;28;20224;-56
2023/08/08 11:08:54;;;;;;;1.43;0.70;;;;;;;19.79;43.87;97866.19;6223412;28;20235;-56
2023/08/08 11:11:57;;;;;;;0.67;0.60;;;;;;;19.74;45.33;97852.75;6221175;28;20246;-56
2023/08/08 11:15:00;;;;;;;1.60;0.90;;;;;;;20.34;44.44;97883.31;6218882;28;20729;-57
2023/08/08 11:18:04;;;;;;;2.00;0.80;;;;;;;20.04;43.29;97873.03;6227915;28;20286;-54
2023/08/08 11:24:37;;;;;;;0.67;0.53;;;;;;;19.87;42.50;97854.72;5772074;23;20643;-56
2023/08/08 11:27:39;;;;;;;1.43;0.90;;;;;;;19.86;47.91;97857.72;6211382;28;20216;-56
2023/08/08 11:30:45;;;;;;;3.20;2.00;;;;;;;19.91;48.21;97858.44;6207350;28;20757;-55
2023/08/08 11:33:48;;;;;;;1.23;0.97;;;;;;;19.79;45.43;97850.78;6207189;28;20239;-57
2023/08/08 11:36:51;;;;;;;0.90;0.83;;;;;;;19.90;44.31;97847.88;6207550;28;20265;-57
2023/08/08 11:39:53;;;;;;;0.90;0.80;;;;;;;19.69;44.53;97856.34;6205844;28;20240;-57
2023/08/08 11:42:57;;;;;;;1.20;0.90;;;;;;;19.72;46.44;97852.28;6208089;28;20246;-50
2023/08/08 11:46:03;;;;;;;1.10;0.77;;;;;;;19.69;46.91;97832.03;6206708;28;20263;-57
2023/08/08 11:49:06;;;;;;;1.60;1.30;;;;;;;19.95;42.82;97843.22;6206529;28;20327;-57
2023/08/08 11:52:09;;;;;;;0.83;0.70;;;;;;;20.22;41.57;97855.16;6206258;28;20240;-56
2023/08/08 11:55:12;;;;;;;0.60;0.53;;;;;;;20.11;39.70;97841.03;6202839;28;20232;-56
2023/08/08 11:58:15;;;;;;;5.23;3.33;;;;;;;20.07;45.61;97846.22;6206339;28;20320;-56
2023/08/08 12:01:22;;;;;;;2.77;1.00;;;;;;;20.26;39.58;97815.56;6207269;28;20232;-57
2023/08/08 12:04:24;;;;;;;0.87;0.87;;;;;;;20.27;41.29;97828.78;6202826;28;20684;-55
2023/08/08 12:07:33;;;;;;;1.27;0.70;;;;;;;20.32;43.46;97825.97;6208160;28;20328;-55
2023/08/08 12:10:35;;;;;;;0.60;0.60;;;;;;;20.34;42.28;97817.56;6202933;28;20905;-55
2023/08/08 12:13:40;;;;;;;0.83;0.77;;;;;;;20.50;40.56;97818.88;6205731;28;20240;-56
2023/08/08 12:16:43;;;;;;;2.17;1.20;;;;;;;20.38;43.14;97826.69;6193809;28;20237;-52
2023/08/08 12:19:47;;;;;;;0.73;0.60;;;;;;;20.31;43.45;97821.69;6206095;28;20259;-55
2023/08/08 12:22:49;;;;;;;1.60;0.80;;;;;;;20.65;36.24;97820.47;6205762;28;20770;-54
2023/08/08 12:25:51;;;;;;;0.70;0.70;;;;;;;20.37;38.42;97789.91;6206849;28;20236;-54
2023/08/08 12:28:54;;;;;;;0.60;0.60;;;;;;;20.53;39.00;97812.06;6209664;28;20695;-52
2023/08/08 12:31:56;;;;;;;1.33;1.23;;;;;;;20.39;40.15;97824.78;6205243;28;20291;-56
2023/08/08 12:34:58;;;;;;;0.70;0.70;;;;;;;20.39;38.93;97819.34;6204866;28;20830;-56
2023/08/08 12:38:01;;;;;;;1.43;0.70;;;;;;;20.39;41.53;97809.34;6206283;28;20732;-56
2023/08/08 12:41:03;;;;;;;1.33;0.80;;;;;;;20.52;38.40;97795.03;6205198;28;20236;-55
2023/08/08 12:44:07;;;;;;;0.87;0.67;;;;;;;20.58;40.01;97811.94;6211273;28;20229;-50
2023/08/08 12:47:10;;;;;;;3.03;1.97;;;;;;;20.59;42.77;97813.53;6205168;28;20740;-56
2023/08/08 12:50:15;;;;;;;0.80;0.80;;;;;;;20.69;39.08;97810.66;6207250;28;20872;-55
2023/08/08 12:53:18;;;;;;;1.03;0.70;;;;;;;20.65;40.08;97784.47;6197117;28;20228;-57
2023/08/08 12:56:20;;;;;;;1.47;0.80;;;;;;;20.70;39.45;97809.53;6205689;28;20834;-54
2023/08/08 12:59:23;;;;;;;1.30;0.90;;;;;;;20.90;38.14;97802.06;6210744;28;20232;-53
2023/08/08 13:02:25;;;;;;;0.70;0.70;;;;;;;21.04;37.05;97800.91;6206066;28;20224;-57
2023/08/08 13:05:27;;;;;;;1.00;0.70;;;;;;;20.97;38.84;97797.81;6204906;28;20239;-54
2023/08/08 13:08:29;;;;;;;0.90;0.63;;;;;;;20.89;39.92;97801.25;6205224;28;20721;-54
2023/08/08 13:11:32;;;;;;;1.43;0.97;;;;;;;20.91;36.99;97798.25;6204699;28;20247;-57
2023/08/08 13:14:34;;;;;;;0.70;0.70;;;;;;;20.86;39.37;97810.78;6203903;28;20263;-58
2023/08/08 13:17:36;;;;;;;1.13;0.80;;;;;;;20.81;41.25;97804.69;6180767;28;20260;-55
2023/08/08 13:20:39;;;;;;;1.17;0.63;;;;;;;20.92;38.24;97802.53;6205164;28;20354;-53
2023/08/08 13:23:42;;;;;;;0.90;0.70;;;;;;;20.84;37.26;97796.75;6204331;28;20318;-57
2023/08/08 13:26:44;;;;;;;0.90;0.80;;;;;;;20.81;40.84;97793.84;6198895;28;20232;-55
2023/08/08 13:29:46;;;;;;;1.20;1.10;;;;;;;20.69;36.06;97796.28;6203364;28;20362;-57
2023/08/08 13:32:49;;;;;;;0.70;0.70;;;;;;;20.75;37.91;97793.19;6205264;28;20240;-56
2023/08/08 13:35:51;;;;;;;1.27;0.50;;;;;;;20.67;40.28;97790.38;6203225;28;20604;-57
2023/08/08 13:38:53;;;;;;;1.60;1.00;;;;;;;20.68;38.94;97781.94;6204198;28;20236;-56
2023/08/08 13:41:56;;;;;;;0.70;0.70;;;;;;;20.71;36.48;97770.53;6199259;28;20605;-56
2023/08/08 13:44:59;;;;;;;0.63;0.60;;;;;;;20.94;35.33;97768.66;6209903;28;20232;-56
2023/08/08 13:48:01;;;;;;;0.73;0.60;;;;;;;20.76;36.19;97765.00;6204320;28;20212;-54
2023/08/08 13:51:04;;;;;;;1.93;1.40;;;;;;;20.66;38.77;97759.81;6179963;28;20224;-57
2023/08/08 13:54:06;;;;;;;4.20;3.80;;;;;;;20.54;41.35;97767.63;6205015;28;20219;-52
2023/08/08 13:57:08;;;;;;;1.37;0.90;;;;;;;20.27;38.00;97714.38;6187112;28;20232;-50
2023/08/08 14:00:12;;;;;;;1.33;0.90;;;;;;;20.73;38.72;97762.09;6192964;28;20235;-56
2023/08/08 14:03:14;;;;;;;0.80;0.80;;;;;;;20.71;37.58;97758.88;6203640;28;20216;-53
2023/08/08 14:06:18;;;;;;;1.40;0.70;;;;;;;20.71;40.03;97765.09;6203437;28;20709;-52
2023/08/08 14:09:21;;;;;;;3.60;3.30;;;;;;;20.66;38.66;97757.09;6203699;28;20216;-56
2023/08/08 14:12:23;;;;;;;1.73;1.60;;;;;;;20.65;41.16;97760.91;6203822;28;20707;-54
2023/08/08 14:15:25;;;;;;;0.80;0.80;;;;;;;20.79;39.49;97747.34;6185042;28;20216;-54
2023/08/08 14:18:40;;;;;;;0.90;0.90;;;;;;;20.97;38.92;97748.25;6197224;28;20710;-56
2023/08/08 14:21:43;;;;;;;1.10;0.90;;;;;;;21.05;38.08;97747.53;6203680;28;20236;-56
2023/08/08 14:24:45;;;;;;;1.43;1.20;;;;;;;20.96;42.35;97741.25;6203636;28;20362;-54
2023/08/08 14:27:47;;;;;;;1.27;1.13;;;;;;;20.81;43.43;97731.59;6201600;28;20227;-57
2023/08/08 14:30:50;;;;;;;2.57;1.00;;;;;;;20.72;44.94;97747.75;6192644;28;20335;-57
2023/08/08 14:33:52;;;;;;;2.23;1.60;;;;;;;20.55;44.06;97742.19;6199276;28;20228;-57